WetterOnline ( http://www.wetteronline.de )

Wetter aktuell Lüchow

Aktuelles Wetter: Lüchow (18m)

6-stündlich | Neueste Meldungen
Ortszeit Temperatur Wetter
Fr, 23.02. 13:00 -0.3° C leicht bewölkt
Fr, 23.02. 7:00 -3.2° C wolkenlos
Fr, 23.02. 1:00 -0.2° C bedeckt
Do, 22.02. 19:00 0.5° C bewölkt
Do, 22.02. 13:00 1.9° C bewölkt
Do, 22.02. 7:00 -3.9° C bewölkt
Do, 22.02. 1:00 -3.5° C wolkenlos
Mi, 21.02. 19:00 -1.0° C bedeckt
Ortszeit Temperatur Wetter
Fr, 23.02. 13:00 -0.3° C leicht bewölkt
Fr, 23.02. 12:50 -0.3° C leicht bewölkt
Fr, 23.02. 12:40 -0.4° C wolkig
Fr, 23.02. 12:30 0.5° C leicht bewölkt
Fr, 23.02. 12:20 0.5° C leicht bewölkt
Fr, 23.02. 12:10 -0.6° C fast wolkenlos
Fr, 23.02. 12:00 -0.3° C wolkenlos
Fr, 23.02. 11:30 -1.0° C leicht bewölkt
Fr, 23.02. 11:00 -2.1° C leicht bewölkt
Fr, 23.02. 10:30 -2.8° C bewölkt
Fr, 23.02. 10:00 -2.8° C bewölkt
Ortszeit Relative Feuchte Sichtweite
Fr, 23.02. 13:00 60% 16 km
Fr, 23.02. 7:00 82% 20 km
Fr, 23.02. 1:00 89% 6 km
Do, 22.02. 19:00 90% 3.7 km
Do, 22.02. 13:00 69% 15 km
Do, 22.02. 7:00 96% 4.2 km
Do, 22.02. 1:00 96% 4.6 km
Mi, 21.02. 19:00 80% 11 km
Ortszeit Relative Feuchte Sichtweite
Fr, 23.02. 13:00 60% 16 km
Fr, 23.02. 12:50 60% -
Fr, 23.02. 12:40 65% -
Fr, 23.02. 12:30 62% 15 km
Fr, 23.02. 12:20 62% -
Fr, 23.02. 12:10 61% -
Fr, 23.02. 12:00 62% 10 km
Fr, 23.02. 11:30 64% 10 km
Fr, 23.02. 11:00 68% 9 km
Fr, 23.02. 10:30 74% 8 km
Fr, 23.02. 10:00 75% 11 km
Ortszeit Niederschlagsmenge Niederschlagsart
Fr, 23.02. 13:00 0.0 l/m2 in 6 Std. -
Fr, 23.02. 7:00 0.1 l/m2 in 12 Std. -
Fr, 23.02. 1:00 0.1 l/m2 in 6 Std. Schnee
Do, 22.02. 19:00 0.1 l/m2 in 12 Std. Schnee, Niederschlag
Do, 22.02. 13:00 0.0 l/m2 in 6 Std. -
Do, 22.02. 7:00 0.0 l/m2 in 12 Std. -
Do, 22.02. 1:00 0.0 l/m2 in 6 Std. -
Mi, 21.02. 19:00 0.0 l/m2 in 12 Std. -
Ortszeit Niederschlagsmenge Niederschlagsart
Fr, 23.02. 13:00 0.0 l/m2 in 1 Std. -
Fr, 23.02. 12:50 keine Meldung -
Fr, 23.02. 12:40 keine Meldung -
Fr, 23.02. 12:30 0.0 l/m2 in 1 Std. -
Fr, 23.02. 12:20 keine Meldung -
Fr, 23.02. 12:10 keine Meldung -
Fr, 23.02. 12:00 0.0 l/m2 in 1 Std. -
Fr, 23.02. 11:30 0.0 l/m2 in 1 Std. -
Fr, 23.02. 11:00 0.0 l/m2 in 1 Std. -
Fr, 23.02. 10:30 0.0 l/m2 in 1 Std. -
Fr, 23.02. 10:00 0.0 l/m2 in 1 Std. -
Ortszeit Stärke Spitze Richtung
km/h Bft. km/h Grad Sektor
Fr, 23.02. 13:00 14 3 29 90° O
Fr, 23.02. 7:00 11 2 25 40° NO
Fr, 23.02. 1:00 9 2 17 70° O
Do, 22.02. 19:00 7 2 22 10° N
Do, 22.02. 13:00 11 2 19 40° NO
Do, 22.02. 7:00 7 2 11 10° N
Do, 22.02. 1:00 6 1 9 10° N
Mi, 21.02. 19:00 4 1 22 350° N
Ortszeit Stärke Spitze Richtung
km/h Bft. km/h Grad Sektor
Fr, 23.02. 13:00 14 3 25 90° O
Fr, 23.02. 12:50 14 3 - 90° O
Fr, 23.02. 12:40 17 3 - 60° NO
Fr, 23.02. 12:30 11 2 22 100° O
Fr, 23.02. 12:20 11 2 - 100° O
Fr, 23.02. 12:10 13 3 - 110° O
Fr, 23.02. 12:00 13 3 26 110° O
Fr, 23.02. 11:30 9 2 22 90° O
Fr, 23.02. 11:00 11 2 29 80° O
Fr, 23.02. 10:30 14 3 29 70° O
Fr, 23.02. 10:00 13 3 28 80° O
Ortszeit Untergrenze Bedeckung Gattung
total tief tief mittel hoch
Fr, 23.02. 13:00 840 m 3/8 3/8 - - -
Fr, 23.02. 7:00 - 0/8 0/8 - - -
Fr, 23.02. 1:00 1500 m 8/8 8/8 - - -
Do, 22.02. 19:00 690 m 7/8 7/8 - - -
Do, 22.02. 13:00 780 m 7/8 7/8 - - -
Do, 22.02. 7:00 1800 m 8/8 7/8 - - -
Do, 22.02. 1:00 - 0/8 0/8 - - -
Mi, 21.02. 19:00 4200 m 8/8 8/8 - - -
Ortszeit Bedeckungsgrad in Achtel und Wolkenuntergrenze
Fr, 23.02. 13:00 3(840m)
Fr, 23.02. 12:50 3(840m)
Fr, 23.02. 12:40 5(840m)
Fr, 23.02. 12:30 4(840m)
Fr, 23.02. 12:20 4(840m)
Fr, 23.02. 12:10 1(840m)
Fr, 23.02. 12:00 keine Wolken
Fr, 23.02. 11:30 2(750m)
Fr, 23.02. 11:00 2(630m)
Fr, 23.02. 10:30 7(570m)
Fr, 23.02. 10:00 7(540m)
Ortszeit Luftdruck NN (hPa) Tendenz (hPa in 3 Std.)
Fr, 23.02. 13:00 1028 - 0,2
Fr, 23.02. 7:00 1027 + 0,6
Fr, 23.02. 1:00 1026 + 0,3
Do, 22.02. 19:00 1026 - 0,2
Do, 22.02. 13:00 1027 - 0,3
Do, 22.02. 7:00 1027 - 0,1
Do, 22.02. 1:00 1028 0,0
Mi, 21.02. 19:00 1027 + 0,4
Ortszeit Luftdruck NN (hPa) Tendenz (hPa in 3 Std.)
Fr, 23.02. 13:00 1028 - 0,2
Fr, 23.02. 12:50 1028 keine Meldung
Fr, 23.02. 12:40 1028 keine Meldung
Fr, 23.02. 12:30 1028 0,0
Fr, 23.02. 12:20 1028 keine Meldung
Fr, 23.02. 12:10 1028 keine Meldung
Fr, 23.02. 12:00 1028 + 0,4
Fr, 23.02. 11:30 1028 + 0,7
Fr, 23.02. 11:00 1028 + 0,9
Fr, 23.02. 10:30 1028 + 1,0
Fr, 23.02. 10:00 1028 + 1,1
Ortszeit Schneehöhe (cm)
Fr, 23.02. 13:00 0
Fr, 23.02. 7:00 0
Fr, 23.02. 1:00 0
Do, 22.02. 19:00 0
Do, 22.02. 13:00 0
Do, 22.02. 7:00 0
Do, 22.02. 1:00 0
Mi, 21.02. 19:00 0
Ortszeit Schneehöhe (cm)
Fr, 23.02. 13:00 0
Fr, 23.02. 12:50 0
Fr, 23.02. 12:40 0
Fr, 23.02. 12:30 0
Fr, 23.02. 12:20 0
Fr, 23.02. 12:10 0
Fr, 23.02. 12:00 0
Fr, 23.02. 11:30 0
Fr, 23.02. 11:00 0
Fr, 23.02. 10:30 0
Fr, 23.02. 10:00 0
Link zu dieser Seite / Seite empfehlen

Das Wetter in ...